sensor_id;sensor_type;location;lat;lon;timestamp;P1;durP1;ratioP1;P2;durP2;ratioP2
47259;SDS011;32999;52.412;4.890;2024-03-02T00:18:04;1.20;;;0.40;;
47259;SDS011;32999;52.412;4.890;2024-03-02T00:23:40;0.45;;;0.20;;
47259;SDS011;32999;52.412;4.890;2024-03-02T00:34:28;0.80;;;0.30;;
47259;SDS011;32999;52.412;4.890;2024-03-02T00:39:40;0.20;;;0.20;;
47259;SDS011;32999;52.412;4.890;2024-03-02T01:42:35;1.35;;;0.30;;
47259;SDS011;32999;52.412;4.890;2024-03-02T02:32:49;2.20;;;1.00;;
47259;SDS011;32999;52.412;4.890;2024-03-02T03:17:43;1.10;;;0.50;;
47259;SDS011;32999;52.412;4.890;2024-03-02T03:22:47;1.63;;;0.60;;
47259;SDS011;32999;52.412;4.890;2024-03-02T04:02:32;0.70;;;0.57;;
47259;SDS011;32999;52.412;4.890;2024-03-02T04:13:44;2.50;;;0.90;;
47259;SDS011;32999;52.412;4.890;2024-03-02T04:25:04;5.05;;;0.63;;
47259;SDS011;32999;52.412;4.890;2024-03-02T04:30:10;0.40;;;0.40;;
47259;SDS011;32999;52.412;4.890;2024-03-02T04:46:37;0.93;;;0.43;;
47259;SDS011;32999;52.412;4.890;2024-03-02T04:51:38;3.70;;;0.50;;
47259;SDS011;32999;52.412;4.890;2024-03-02T04:56:40;0.88;;;0.55;;
47259;SDS011;32999;52.412;4.890;2024-03-02T05:01:46;1.55;;;0.57;;
47259;SDS011;32999;52.412;4.890;2024-03-02T05:06:48;0.93;;;0.60;;
47259;SDS011;32999;52.412;4.890;2024-03-02T05:11:55;1.58;;;0.73;;
47259;SDS011;32999;52.412;4.890;2024-03-02T05:23:06;2.60;;;0.68;;
47259;SDS011;32999;52.412;4.890;2024-03-02T05:28:27;0.95;;;0.65;;
47259;SDS011;32999;52.412;4.890;2024-03-02T05:34:05;0.52;;;0.52;;
47259;SDS011;32999;52.412;4.890;2024-03-02T05:39:31;0.68;;;0.40;;
47259;SDS011;32999;52.412;4.890;2024-03-02T06:41:02;1.20;;;0.70;;
47259;SDS011;32999;52.412;4.890;2024-03-02T06:46:04;0.93;;;0.50;;
47259;SDS011;32999;52.412;4.890;2024-03-02T06:51:09;3.90;;;0.65;;
47259;SDS011;32999;52.412;4.890;2024-03-02T06:56:15;0.73;;;0.60;;
47259;SDS011;32999;52.412;4.890;2024-03-02T07:01:22;2.42;;;0.82;;
47259;SDS011;32999;52.412;4.890;2024-03-02T07:06:25;3.30;;;0.50;;
47259;SDS011;32999;52.412;4.890;2024-03-02T07:11:34;1.52;;;0.30;;
47259;SDS011;32999;52.412;4.890;2024-03-02T07:16:40;2.67;;;0.32;;
47259;SDS011;32999;52.412;4.890;2024-03-02T08:07:42;1.65;;;0.40;;
47259;SDS011;32999;52.412;4.890;2024-03-02T08:18:21;1.73;;;0.40;;
47259;SDS011;32999;52.412;4.890;2024-03-02T08:23:26;2.83;;;0.45;;
47259;SDS011;32999;52.412;4.890;2024-03-02T08:28:29;1.52;;;0.50;;
47259;SDS011;32999;52.412;4.890;2024-03-02T08:33:30;3.05;;;0.47;;
47259;SDS011;32999;52.412;4.890;2024-03-02T08:38:33;1.88;;;0.38;;
47259;SDS011;32999;52.412;4.890;2024-03-02T08:43:35;1.52;;;0.40;;
47259;SDS011;32999;52.412;4.890;2024-03-02T08:48:36;2.03;;;0.47;;
47259;SDS011;32999;52.412;4.890;2024-03-02T08:53:39;3.25;;;0.70;;
47259;SDS011;32999;52.412;4.890;2024-03-02T08:58:41;3.42;;;0.88;;
47259;SDS011;32999;52.412;4.890;2024-03-02T09:03:42;3.22;;;0.60;;
47259;SDS011;32999;52.412;4.890;2024-03-02T09:08:46;1.77;;;0.60;;
47259;SDS011;32999;52.412;4.890;2024-03-02T09:13:48;3.05;;;0.98;;
47259;SDS011;32999;52.412;4.890;2024-03-02T09:18:49;6.28;;;0.68;;
47259;SDS011;32999;52.412;4.890;2024-03-02T09:23:52;5.65;;;1.63;;
47259;SDS011;32999;52.412;4.890;2024-03-02T09:28:53;2.92;;;0.80;;
47259;SDS011;32999;52.412;4.890;2024-03-02T09:33:55;2.20;;;0.50;;
47259;SDS011;32999;52.412;4.890;2024-03-02T09:38:58;2.88;;;0.90;;
47259;SDS011;32999;52.412;4.890;2024-03-02T09:44:00;8.57;;;0.95;;
47259;SDS011;32999;52.412;4.890;2024-03-02T09:49:01;6.05;;;1.13;;
47259;SDS011;32999;52.412;4.890;2024-03-02T09:54:04;2.75;;;0.70;;
47259;SDS011;32999;52.412;4.890;2024-03-02T09:59:06;2.72;;;0.85;;
47259;SDS011;32999;52.412;4.890;2024-03-02T10:04:07;5.25;;;1.58;;
47259;SDS011;32999;52.412;4.890;2024-03-02T10:09:10;4.85;;;0.98;;
47259;SDS011;32999;52.412;4.890;2024-03-02T10:14:15;5.68;;;0.60;;
47259;SDS011;32999;52.412;4.890;2024-03-02T10:19:17;2.45;;;0.40;;
47259;SDS011;32999;52.412;4.890;2024-03-02T10:24:21;6.03;;;1.05;;
47259;SDS011;32999;52.412;4.890;2024-03-02T10:29:22;6.65;;;0.80;;
47259;SDS011;32999;52.412;4.890;2024-03-02T10:34:27;2.28;;;0.75;;
47259;SDS011;32999;52.412;4.890;2024-03-02T10:39:29;2.38;;;0.50;;
47259;SDS011;32999;52.412;4.890;2024-03-02T10:44:31;3.70;;;0.68;;
47259;SDS011;32999;52.412;4.890;2024-03-02T10:49:33;5.22;;;0.63;;
47259;SDS011;32999;52.412;4.890;2024-03-02T10:54:36;3.83;;;0.80;;
47259;SDS011;32999;52.412;4.890;2024-03-02T10:59:42;6.10;;;0.77;;
47259;SDS011;32999;52.412;4.890;2024-03-02T11:04:48;4.05;;;0.65;;
47259;SDS011;32999;52.412;4.890;2024-03-02T11:09:53;5.47;;;0.68;;
47259;SDS011;32999;52.412;4.890;2024-03-02T11:14:55;5.82;;;1.00;;
47259;SDS011;32999;52.412;4.890;2024-03-02T11:19:57;4.60;;;0.70;;
47259;SDS011;32999;52.412;4.890;2024-03-02T11:25:00;3.65;;;1.17;;
47259;SDS011;32999;52.412;4.890;2024-03-02T11:30:02;5.63;;;1.05;;
47259;SDS011;32999;52.412;4.890;2024-03-02T11:35:04;4.78;;;0.90;;
47259;SDS011;32999;52.412;4.890;2024-03-02T11:40:09;4.22;;;0.60;;
47259;SDS011;32999;52.412;4.890;2024-03-02T11:45:11;1.90;;;0.40;;
47259;SDS011;32999;52.412;4.890;2024-03-02T11:50:13;1.63;;;0.70;;
47259;SDS011;32999;52.412;4.890;2024-03-02T11:55:15;4.28;;;1.02;;
47259;SDS011;32999;52.412;4.890;2024-03-02T12:00:18;4.60;;;1.63;;
47259;SDS011;32999;52.412;4.890;2024-03-02T12:05:20;3.55;;;0.52;;
47259;SDS011;32999;52.412;4.890;2024-03-02T12:10:23;2.17;;;0.60;;
47259;SDS011;32999;52.412;4.890;2024-03-02T12:15:25;4.40;;;0.52;;
47259;SDS011;32999;52.412;4.890;2024-03-02T12:20:28;2.08;;;0.57;;
47259;SDS011;32999;52.412;4.890;2024-03-02T12:25:31;3.83;;;0.70;;
47259;SDS011;32999;52.412;4.890;2024-03-02T12:30:35;4.40;;;0.70;;
47259;SDS011;32999;52.412;4.890;2024-03-02T12:35:36;7.70;;;0.93;;
47259;SDS011;32999;52.412;4.890;2024-03-02T12:40:39;4.57;;;0.70;;
47259;SDS011;32999;52.412;4.890;2024-03-02T12:45:41;2.15;;;0.60;;
47259;SDS011;32999;52.412;4.890;2024-03-02T12:50:42;3.58;;;0.40;;
47259;SDS011;32999;52.412;4.890;2024-03-02T12:55:45;4.68;;;0.57;;
47259;SDS011;32999;52.412;4.890;2024-03-02T13:00:47;3.90;;;0.88;;
47259;SDS011;32999;52.412;4.890;2024-03-02T13:05:48;3.47;;;0.60;;
47259;SDS011;32999;52.412;4.890;2024-03-02T13:10:52;2.40;;;0.47;;
47259;SDS011;32999;52.412;4.890;2024-03-02T13:15:54;3.65;;;0.70;;
47259;SDS011;32999;52.412;4.890;2024-03-02T13:20:56;4.20;;;0.70;;
47259;SDS011;32999;52.412;4.890;2024-03-02T13:25:58;2.97;;;0.77;;
47259;SDS011;32999;52.412;4.890;2024-03-02T13:31:00;1.35;;;0.50;;
47259;SDS011;32999;52.412;4.890;2024-03-02T13:36:02;1.88;;;0.55;;
47259;SDS011;32999;52.412;4.890;2024-03-02T13:41:05;3.10;;;0.70;;
47259;SDS011;32999;52.412;4.890;2024-03-02T13:46:06;2.97;;;1.13;;
47259;SDS011;32999;52.412;4.890;2024-03-02T13:51:08;4.20;;;0.50;;
47259;SDS011;32999;52.412;4.890;2024-03-02T13:56:11;4.68;;;0.55;;
47259;SDS011;32999;52.412;4.890;2024-03-02T14:01:12;2.70;;;0.70;;
47259;SDS011;32999;52.412;4.890;2024-03-02T14:06:14;2.75;;;0.47;;
47259;SDS011;32999;52.412;4.890;2024-03-02T14:11:16;2.25;;;0.52;;
47259;SDS011;32999;52.412;4.890;2024-03-02T14:16:18;4.78;;;0.65;;
47259;SDS011;32999;52.412;4.890;2024-03-02T14:21:19;4.00;;;0.63;;
47259;SDS011;32999;52.412;4.890;2024-03-02T14:26:22;2.03;;;0.30;;
47259;SDS011;32999;52.412;4.890;2024-03-02T14:31:24;2.05;;;0.38;;
47259;SDS011;32999;52.412;4.890;2024-03-02T14:36:25;5.57;;;0.80;;
47259;SDS011;32999;52.412;4.890;2024-03-02T14:41:29;2.10;;;0.45;;
47259;SDS011;32999;52.412;4.890;2024-03-02T14:46:34;1.45;;;0.55;;
47259;SDS011;32999;52.412;4.890;2024-03-02T14:51:36;6.57;;;1.00;;
47259;SDS011;32999;52.412;4.890;2024-03-02T14:56:40;1.20;;;0.57;;
47259;SDS011;32999;52.412;4.890;2024-03-02T15:01:42;2.10;;;0.35;;
47259;SDS011;32999;52.412;4.890;2024-03-02T15:06:43;2.50;;;0.70;;
47259;SDS011;32999;52.412;4.890;2024-03-02T15:11:46;3.17;;;0.90;;
47259;SDS011;32999;52.412;4.890;2024-03-02T15:16:48;4.18;;;0.80;;
47259;SDS011;32999;52.412;4.890;2024-03-02T15:21:50;2.75;;;0.60;;
47259;SDS011;32999;52.412;4.890;2024-03-02T15:26:53;2.97;;;0.70;;
47259;SDS011;32999;52.412;4.890;2024-03-02T15:31:54;3.17;;;0.70;;
47259;SDS011;32999;52.412;4.890;2024-03-02T15:36:56;1.98;;;0.50;;
47259;SDS011;32999;52.412;4.890;2024-03-02T15:41:59;3.72;;;0.70;;
47259;SDS011;32999;52.412;4.890;2024-03-02T15:47:01;5.73;;;0.80;;
47259;SDS011;32999;52.412;4.890;2024-03-02T15:52:03;4.43;;;1.10;;
47259;SDS011;32999;52.412;4.890;2024-03-02T15:57:20;2.17;;;0.88;;
47259;SDS011;32999;52.412;4.890;2024-03-02T16:07:24;3.90;;;1.17;;
47259;SDS011;32999;52.412;4.890;2024-03-02T16:12:27;1.95;;;0.60;;
47259;SDS011;32999;52.412;4.890;2024-03-02T16:17:28;3.75;;;0.70;;
47259;SDS011;32999;52.412;4.890;2024-03-02T16:22:30;2.40;;;0.90;;
47259;SDS011;32999;52.412;4.890;2024-03-02T16:27:33;2.85;;;0.68;;
47259;SDS011;32999;52.412;4.890;2024-03-02T16:32:35;2.75;;;0.73;;
47259;SDS011;32999;52.412;4.890;2024-03-02T16:37:37;2.40;;;1.00;;
47259;SDS011;32999;52.412;4.890;2024-03-02T16:42:39;4.72;;;1.10;;
47259;SDS011;32999;52.412;4.890;2024-03-02T16:47:41;1.35;;;0.52;;
47259;SDS011;32999;52.412;4.890;2024-03-02T16:52:42;4.28;;;2.08;;
47259;SDS011;32999;52.412;4.890;2024-03-02T16:57:45;1.83;;;0.65;;
47259;SDS011;32999;52.412;4.890;2024-03-02T17:02:47;5.80;;;1.05;;
47259;SDS011;32999;52.412;4.890;2024-03-02T17:08:02;1.95;;;0.60;;
47259;SDS011;32999;52.412;4.890;2024-03-02T17:13:05;3.92;;;1.73;;
47259;SDS011;32999;52.412;4.890;2024-03-02T17:18:07;3.50;;;1.00;;
47259;SDS011;32999;52.412;4.890;2024-03-02T17:23:08;4.22;;;1.20;;
47259;SDS011;32999;52.412;4.890;2024-03-02T17:28:21;7.15;;;2.35;;
47259;SDS011;32999;52.412;4.890;2024-03-02T17:33:24;1.40;;;0.65;;
47259;SDS011;32999;52.412;4.890;2024-03-02T17:38:25;3.05;;;0.70;;
47259;SDS011;32999;52.412;4.890;2024-03-02T17:43:43;4.03;;;1.02;;
47259;SDS011;32999;52.412;4.890;2024-03-02T17:48:46;1.60;;;0.52;;
47259;SDS011;32999;52.412;4.890;2024-03-02T17:53:50;2.95;;;0.73;;
47259;SDS011;32999;52.412;4.890;2024-03-02T17:59:06;2.42;;;0.80;;
47259;SDS011;32999;52.412;4.890;2024-03-02T18:04:11;2.80;;;0.70;;
47259;SDS011;32999;52.412;4.890;2024-03-02T18:09:14;5.53;;;1.08;;
47259;SDS011;32999;52.412;4.890;2024-03-02T18:19:21;5.25;;;1.08;;
47259;SDS011;32999;52.412;4.890;2024-03-02T18:24:23;2.33;;;1.08;;
47259;SDS011;32999;52.412;4.890;2024-03-02T18:29:30;3.17;;;1.00;;
47259;SDS011;32999;52.412;4.890;2024-03-02T18:34:34;5.10;;;1.45;;
47259;SDS011;32999;52.412;4.890;2024-03-02T18:39:36;3.38;;;1.15;;
47259;SDS011;32999;52.412;4.890;2024-03-02T18:44:37;2.53;;;1.13;;
47259;SDS011;32999;52.412;4.890;2024-03-02T18:49:43;2.58;;;1.08;;
47259;SDS011;32999;52.412;4.890;2024-03-02T18:54:45;2.05;;;1.30;;
47259;SDS011;32999;52.412;4.890;2024-03-02T18:59:47;7.10;;;1.95;;
47259;SDS011;32999;52.412;4.890;2024-03-02T19:04:51;3.25;;;1.63;;
47259;SDS011;32999;52.412;4.890;2024-03-02T19:09:52;2.17;;;1.30;;
47259;SDS011;32999;52.412;4.890;2024-03-02T19:14:54;3.28;;;1.50;;
47259;SDS011;32999;52.412;4.890;2024-03-02T19:19:57;4.68;;;1.50;;
47259;SDS011;32999;52.412;4.890;2024-03-02T19:25:08;2.88;;;1.25;;
47259;SDS011;32999;52.412;4.890;2024-03-02T19:30:36;3.10;;;1.55;;
47259;SDS011;32999;52.412;4.890;2024-03-02T19:35:40;1.98;;;1.20;;
47259;SDS011;32999;52.412;4.890;2024-03-02T19:40:41;2.58;;;1.15;;
47259;SDS011;32999;52.412;4.890;2024-03-02T19:45:43;3.25;;;1.40;;
47259;SDS011;32999;52.412;4.890;2024-03-02T19:50:46;4.63;;;1.60;;
47259;SDS011;32999;52.412;4.890;2024-03-02T19:55:48;3.00;;;1.20;;
47259;SDS011;32999;52.412;4.890;2024-03-02T20:00:49;2.35;;;1.30;;
47259;SDS011;32999;52.412;4.890;2024-03-02T20:05:52;2.42;;;1.60;;
47259;SDS011;32999;52.412;4.890;2024-03-02T20:10:55;3.45;;;1.42;;
47259;SDS011;32999;52.412;4.890;2024-03-02T20:15:57;3.42;;;1.48;;
47259;SDS011;32999;52.412;4.890;2024-03-02T20:21:02;2.17;;;1.30;;
47259;SDS011;32999;52.412;4.890;2024-03-02T20:26:04;4.32;;;2.00;;
47259;SDS011;32999;52.412;4.890;2024-03-02T20:31:06;2.35;;;1.63;;
47259;SDS011;32999;52.412;4.890;2024-03-02T20:36:12;2.88;;;2.05;;
47259;SDS011;32999;52.412;4.890;2024-03-02T20:41:14;1.65;;;1.30;;
47259;SDS011;32999;52.412;4.890;2024-03-02T20:46:16;3.95;;;1.23;;
47259;SDS011;32999;52.412;4.890;2024-03-02T20:51:19;1.92;;;1.27;;
47259;SDS011;32999;52.412;4.890;2024-03-02T20:56:21;5.55;;;1.60;;
47259;SDS011;32999;52.412;4.890;2024-03-02T21:01:22;2.65;;;1.27;;
47259;SDS011;32999;52.412;4.890;2024-03-02T21:06:25;3.70;;;1.55;;
47259;SDS011;32999;52.412;4.890;2024-03-02T21:11:27;2.38;;;1.60;;
47259;SDS011;32999;52.412;4.890;2024-03-02T21:16:29;2.88;;;1.50;;
47259;SDS011;32999;52.412;4.890;2024-03-02T21:21:32;2.63;;;1.50;;
47259;SDS011;32999;52.412;4.890;2024-03-02T21:26:39;3.90;;;2.22;;
47259;SDS011;32999;52.412;4.890;2024-03-02T21:31:41;3.03;;;1.23;;
47259;SDS011;32999;52.412;4.890;2024-03-02T21:36:44;4.10;;;1.90;;
47259;SDS011;32999;52.412;4.890;2024-03-02T21:41:45;4.03;;;1.83;;
47259;SDS011;32999;52.412;4.890;2024-03-02T21:46:47;2.40;;;1.58;;
47259;SDS011;32999;52.412;4.890;2024-03-02T21:51:50;2.88;;;1.67;;
47259;SDS011;32999;52.412;4.890;2024-03-02T21:56:51;4.20;;;1.90;;
47259;SDS011;32999;52.412;4.890;2024-03-02T22:01:53;4.50;;;1.92;;
47259;SDS011;32999;52.412;4.890;2024-03-02T22:06:56;3.47;;;2.03;;
47259;SDS011;32999;52.412;4.890;2024-03-02T22:11:58;3.97;;;2.05;;
47259;SDS011;32999;52.412;4.890;2024-03-02T22:17:01;5.13;;;1.70;;
47259;SDS011;32999;52.412;4.890;2024-03-02T22:22:04;3.90;;;2.85;;
47259;SDS011;32999;52.412;4.890;2024-03-02T22:27:06;2.58;;;1.58;;
47259;SDS011;32999;52.412;4.890;2024-03-02T22:32:07;3.72;;;2.00;;
47259;SDS011;32999;52.412;4.890;2024-03-02T22:37:10;4.75;;;1.92;;
47259;SDS011;32999;52.412;4.890;2024-03-02T22:42:11;4.38;;;2.30;;
47259;SDS011;32999;52.412;4.890;2024-03-02T22:47:13;5.28;;;1.95;;
47259;SDS011;32999;52.412;4.890;2024-03-02T22:52:16;3.80;;;2.13;;
47259;SDS011;32999;52.412;4.890;2024-03-02T22:57:17;7.15;;;3.15;;
47259;SDS011;32999;52.412;4.890;2024-03-02T23:02:19;2.60;;;1.55;;
47259;SDS011;32999;52.412;4.890;2024-03-02T23:07:22;3.47;;;2.00;;
47259;SDS011;32999;52.412;4.890;2024-03-02T23:12:23;4.75;;;1.67;;
47259;SDS011;32999;52.412;4.890;2024-03-02T23:17:25;3.33;;;1.48;;
47259;SDS011;32999;52.412;4.890;2024-03-02T23:22:28;3.88;;;1.65;;
47259;SDS011;32999;52.412;4.890;2024-03-02T23:27:29;3.38;;;1.73;;
47259;SDS011;32999;52.412;4.890;2024-03-02T23:32:31;2.85;;;1.70;;
47259;SDS011;32999;52.412;4.890;2024-03-02T23:37:34;2.88;;;1.38;;
47259;SDS011;32999;52.412;4.890;2024-03-02T23:42:36;2.90;;;1.25;;
47259;SDS011;32999;52.412;4.890;2024-03-02T23:47:38;4.25;;;1.50;;
47259;SDS011;32999;52.412;4.890;2024-03-02T23:52:41;4.22;;;1.58;;
47259;SDS011;32999;52.412;4.890;2024-03-02T23:57:42;2.05;;;1.00;;
